Time;durP1;ratioP1;P1;durP2;ratioP2;P2;SDS_P1;SDS_P2;PMS_P1;PMS_P2;Temp;Humidity;BMP_temperature;BMP_pressure;BME280_temperature;BME280_humidity;BME280_pressure;Samples;Min_cycle;Max_cycle;Signal;HPM_P1;HPM_P2
2021/10/01 00:02:54;;;;;;;27.47;17.67;;;9.50;99.90;;;;;;4335514;33;20215;-66
2021/10/01 00:05:26;;;;;;;26.40;17.93;;;9.40;99.90;;;;;;4334217;33;20145;-66
2021/10/01 00:08:04;;;;;;;29.17;17.80;;;9.40;99.90;;;;;;4335446;33;20578;-66
2021/10/01 00:10:42;;;;;;;29.40;18.57;;;9.30;99.90;;;;;;4335923;33;20246;-66
2021/10/01 00:13:16;;;;;;;30.37;17.87;;;9.30;99.90;;;;;;4370096;32;20177;-66
2021/10/01 00:15:57;;;;;;;29.47;18.40;;;9.20;99.90;;;;;;4412724;32;20150;-65
2021/10/01 00:18:30;;;;;;;28.70;18.63;;;9.20;99.90;;;;;;4410593;32;20185;-66
2021/10/01 00:24:09;;;;;;;29.70;18.60;;;9.20;99.90;;;;;;4364260;32;20132;-65
2021/10/01 00:26:52;;;;;;;28.27;18.27;;;9.10;99.90;;;;;;4363136;33;20218;-66
2021/10/01 00:29:24;;;;;;;31.43;19.40;;;9.10;99.90;;;;;;4363291;33;20140;-65
2021/10/01 00:32:05;;;;;;;29.90;18.93;;;9.00;99.90;;;;;;4364665;32;20144;-65
2021/10/01 00:34:49;;;;;;;29.07;18.30;;;9.00;99.90;;;;;;4365083;32;20195;-65
2021/10/01 00:37:24;;;;;;;29.17;18.23;;;9.00;99.90;;;;;;4363349;32;20218;-66
2021/10/01 00:39:58;;;;;;;25.77;17.20;;;9.00;99.90;;;;;;4363075;33;20227;-65
2021/10/01 00:42:33;;;;;;;34.17;18.60;;;9.00;99.90;;;;;;4363045;33;20552;-65
2021/10/01 00:45:26;;;;;;;28.97;18.37;;;9.00;99.90;;;;;;4364866;32;20199;-66
2021/10/01 00:48:19;;;;;;;29.20;18.03;;;9.00;99.90;;;;;;4319572;33;20382;-66
2021/10/01 00:50:52;;;;;;;29.83;17.70;;;9.10;99.90;;;;;;4319728;33;20280;-66
2021/10/01 00:53:52;;;;;;;30.63;18.27;;;9.00;99.90;;;;;;4320379;33;20164;-66
2021/10/01 00:56:38;;;;;;;24.53;16.37;;;9.00;99.90;;;;;;4319684;33;20173;-66
2021/10/01 00:59:42;;;;;;;27.83;17.67;;;8.90;99.90;;;;;;4318958;33;20806;-66
2021/10/01 01:02:12;;;;;;;27.93;18.07;;;8.90;99.90;;;;;;4362787;33;20140;-66
2021/10/01 01:04:56;;;;;;;29.27;17.83;;;8.80;99.90;;;;;;4362626;33;20199;-66
2021/10/01 01:07:51;;;;;;;26.93;17.47;;;8.80;99.90;;;;;;4363554;32;20243;-67
2021/10/01 01:11:00;;;;;;;30.93;17.63;;;8.70;99.90;;;;;;4364453;32;20137;-65
2021/10/01 01:13:47;;;;;;;29.60;18.37;;;8.60;99.90;;;;;;4364501;32;20187;-66
2021/10/01 01:16:25;;;;;;;29.87;17.57;;;8.60;99.90;;;;;;4362884;32;20152;-66
2021/10/01 01:19:09;;;;;;;30.43;17.97;;;8.60;99.90;;;;;;4364669;32;20167;-66
2021/10/01 01:21:57;;;;;;;29.63;17.60;;;8.60;99.90;;;;;;4372756;32;20159;-66
2021/10/01 01:24:46;;;;;;;25.40;16.87;;;8.60;99.90;;;;;;4367047;32;20147;-66
2021/10/01 01:27:54;;;;;;;27.80;17.67;;;8.60;99.90;;;;;;4409539;32;20155;-66
2021/10/01 01:30:44;;;;;;;26.13;16.37;;;8.60;99.90;;;;;;4410880;32;20428;-66
2021/10/01 01:33:26;;;;;;;27.37;16.83;;;8.60;99.90;;;;;;4411655;32;20218;-66
2021/10/01 01:36:01;;;;;;;25.57;16.20;;;8.60;99.90;;;;;;4409570;32;20130;-65
2021/10/01 01:38:39;;;;;;;26.63;16.87;;;8.50;99.90;;;;;;4409934;32;20139;-65
2021/10/01 01:41:24;;;;;;;27.80;16.47;;;8.50;99.90;;;;;;4411555;32;20162;-65
2021/10/01 01:44:18;;;;;;;26.77;16.50;;;8.50;99.90;;;;;;4409820;32;20159;-65
2021/10/01 01:46:51;;;;;;;25.93;16.80;;;8.50;99.90;;;;;;4411352;32;20150;-65
2021/10/01 01:49:25;;;;;;;26.77;16.50;;;8.40;99.90;;;;;;4409421;32;20181;-65
2021/10/01 01:52:02;;;;;;;24.73;16.70;;;8.40;99.90;;;;;;4411263;32;20155;-65
2021/10/01 01:54:39;;;;;;;23.77;15.73;;;8.30;99.90;;;;;;4411080;32;20159;-66
2021/10/01 01:57:23;;;;;;;24.57;16.37;;;8.20;99.90;;;;;;4409027;32;20393;-65
2021/10/01 01:59:54;;;;;;;23.97;15.40;;;8.20;99.90;;;;;;4411140;32;20445;-65
2021/10/01 02:02:42;;;;;;;25.70;16.47;;;8.20;99.90;;;;;;4397434;32;20128;-65
2021/10/01 02:05:20;;;;;;;31.53;16.83;;;8.10;99.90;;;;;;4410985;32;20127;-65
2021/10/01 02:07:48;;;;;;;26.87;15.37;;;8.10;99.90;;;;;;4410352;32;20219;-66
2021/10/01 02:10:25;;;;;;;27.10;16.97;;;8.10;99.90;;;;;;4409492;32;20442;-65
2021/10/01 02:13:08;;;;;;;25.63;16.87;;;8.00;99.90;;;;;;4409296;32;20132;-65
2021/10/01 02:15:42;;;;;;;26.63;16.43;;;8.00;99.90;;;;;;4410722;32;20193;-65
2021/10/01 02:18:14;;;;;;;25.73;17.10;;;7.90;99.90;;;;;;4408914;32;20180;-65
2021/10/01 02:21:17;;;;;;;25.00;16.30;;;7.90;99.90;;;;;;4412248;32;20213;-65
2021/10/01 02:23:52;;;;;;;25.93;16.63;;;7.90;99.90;;;;;;4418727;32;20365;-65
2021/10/01 02:26:54;;;;;;;27.90;17.43;;;7.90;99.90;;;;;;4424023;32;20209;-66
2021/10/01 02:29:30;;;;;;;27.07;17.57;;;7.90;99.90;;;;;;4423830;32;20172;-65
2021/10/01 02:32:22;;;;;;;26.33;16.57;;;7.90;99.90;;;;;;4425790;32;20184;-65
2021/10/01 02:34:57;;;;;;;27.80;17.00;;;7.80;99.90;;;;;;4425865;32;20134;-65
2021/10/01 02:37:42;;;;;;;27.10;17.57;;;7.70;99.90;;;;;;4423701;32;20188;-66
2021/10/01 02:40:23;;;;;;;27.13;16.77;;;7.70;99.90;;;;;;4424422;32;20135;-66
2021/10/01 02:42:55;;;;;;;30.63;18.20;;;7.60;99.90;;;;;;4423843;32;20135;-65
2021/10/01 02:45:30;;;;;;;28.80;17.63;;;7.60;99.90;;;;;;4425426;32;20135;-66
2021/10/01 02:48:30;;;;;;;31.37;17.47;;;7.60;99.90;;;;;;4425800;32;20143;-66
2021/10/01 02:51:28;;;;;;;29.50;18.30;;;7.60;99.90;;;;;;4347099;33;20394;-66
2021/10/01 02:54:21;;;;;;;24.87;17.27;;;7.60;99.90;;;;;;4346258;33;20231;-66
2021/10/01 02:57:02;;;;;;;27.23;17.37;;;7.60;99.90;;;;;;4347556;33;20447;-66
2021/10/01 02:59:40;;;;;;;25.67;16.77;;;7.60;99.90;;;;;;4346673;33;20285;-66
2021/10/01 03:02:26;;;;;;;27.10;16.67;;;7.60;99.90;;;;;;4346703;33;20176;-66
2021/10/01 03:05:03;;;;;;;28.43;18.47;;;7.60;99.90;;;;;;4346107;33;20438;-65
2021/10/01 03:07:53;;;;;;;29.77;18.30;;;7.60;99.90;;;;;;4347564;33;20203;-65
2021/10/01 03:10:30;;;;;;;26.93;17.47;;;7.50;99.90;;;;;;4348362;33;20133;-66
2021/10/01 03:13:04;;;;;;;27.27;17.53;;;7.50;99.90;;;;;;4341842;33;20171;-66
2021/10/01 03:15:45;;;;;;;25.90;16.87;;;7.50;99.90;;;;;;4333490;33;20172;-66
2021/10/01 03:18:23;;;;;;;26.40;17.10;;;7.50;99.90;;;;;;4333079;33;20160;-66
2021/10/01 03:20:56;;;;;;;26.43;16.33;;;7.50;99.90;;;;;;4331696;33;20153;-66
2021/10/01 03:23:35;;;;;;;25.40;16.63;;;7.50;99.90;;;;;;4332884;33;20137;-66
2021/10/01 03:26:07;;;;;;;26.47;16.87;;;7.40;99.90;;;;;;4331681;33;20191;-65
2021/10/01 03:29:11;;;;;;;28.57;18.13;;;7.40;99.90;;;;;;4395942;32;20155;-67
2021/10/01 03:31:42;;;;;;;27.17;17.33;;;7.20;99.90;;;;;;4412891;32;20131;-66
2021/10/01 03:34:18;;;;;;;27.63;17.17;;;7.30;99.90;;;;;;4412031;32;20131;-66
2021/10/01 03:37:24;;;;;;;24.60;15.97;;;7.30;99.90;;;;;;4412775;32;20178;-66
2021/10/01 03:40:04;;;;;;;26.97;16.83;;;7.20;99.90;;;;;;4411538;32;20131;-66
2021/10/01 03:42:51;;;;;;;25.27;16.27;;;7.20;99.90;;;;;;4411341;32;20152;-66
2021/10/01 03:45:36;;;;;;;29.10;17.30;;;7.30;99.90;;;;;;4419915;32;20137;-66
2021/10/01 03:48:14;;;;;;;26.70;16.70;;;7.30;99.90;;;;;;4428403;32;20346;-65
2021/10/01 03:50:57;;;;;;;26.63;15.90;;;7.20;99.90;;;;;;4428034;32;20155;-66
2021/10/01 03:53:40;;;;;;;26.00;16.50;;;7.30;99.90;;;;;;4427953;32;20195;-66
2021/10/01 03:56:43;;;;;;;30.97;16.73;;;7.20;99.90;;;;;;4378617;32;20156;-66
2021/10/01 03:59:19;;;;;;;23.97;15.93;;;7.20;99.90;;;;;;4379128;32;20166;-66
2021/10/01 04:02:21;;;;;;;23.40;15.40;;;7.00;99.90;;;;;;4380478;32;20523;-66
2021/10/01 04:05:34;;;;;;;24.87;15.43;;;7.00;99.90;;;;;;4376625;32;20156;-66
2021/10/01 04:08:19;;;;;;;24.20;15.73;;;6.90;99.90;;;;;;4373783;32;20203;-67
2021/10/01 04:11:02;;;;;;;24.70;15.53;;;6.90;99.90;;;;;;4380230;32;20217;-66
2021/10/01 04:14:03;;;;;;;25.00;15.77;;;6.80;99.90;;;;;;4380226;32;20464;-66
2021/10/01 04:16:34;;;;;;;24.17;15.83;;;6.80;99.90;;;;;;4380426;32;20480;-66
2021/10/01 04:19:16;;;;;;;29.07;16.77;;;6.80;99.90;;;;;;4380322;32;20406;-66
2021/10/01 04:22:23;;;;;;;25.67;15.43;;;6.70;99.90;;;;;;4379509;32;20171;-66
2021/10/01 04:25:23;;;;;;;23.77;15.23;;;6.70;99.90;;;;;;4304907;33;20175;-66
2021/10/01 04:28:18;;;;;;;25.97;16.27;;;6.80;99.90;;;;;;4304708;33;20153;-67
2021/10/01 04:31:03;;;;;;;26.13;16.00;;;6.80;99.90;;;;;;4306313;33;20451;-67
2021/10/01 04:33:55;;;;;;;22.10;15.07;;;6.80;99.90;;;;;;4321739;33;20145;-67
2021/10/01 04:36:22;;;;;;;25.33;15.70;;;6.80;99.90;;;;;;4334134;33;20179;-67
2021/10/01 04:38:49;;;;;;;24.47;15.80;;;6.80;99.90;;;;;;4335323;33;20386;-67
2021/10/01 04:41:27;;;;;;;24.70;16.33;;;6.80;99.90;;;;;;4334447;33;20187;-67
2021/10/01 04:44:14;;;;;;;;;;;;;;;;;;;;;
2021/10/01 04:46:44;;;;;;;25.73;15.50;;;6.70;99.90;;;;;;4333356;33;20198;-66
2021/10/01 04:49:24;;;;;;;25.40;15.83;;;6.60;99.90;;;;;;4333519;33;20160;-66
2021/10/01 04:52:13;;;;;;;25.10;15.57;;;6.60;99.90;;;;;;4335275;33;20193;-66
2021/10/01 04:55:07;;;;;;;;;;;;;;;;;;;;;
2021/10/01 04:57:50;;;;;;;24.03;14.80;;;6.70;99.90;;;;;;4410081;32;20506;-66
2021/10/01 05:00:38;;;;;;;24.83;15.73;;;6.60;99.90;;;;;;4410239;32;20238;-65
2021/10/01 05:03:24;;;;;;;26.30;15.33;;;6.60;99.90;;;;;;4416485;32;20172;-65
2021/10/01 05:06:46;;;;;;;23.20;14.93;;;6.60;99.90;;;;;;4411139;32;20169;-66
2021/10/01 05:09:30;;;;;;;21.43;14.53;;;6.60;99.90;;;;;;4333054;33;20182;-64
2021/10/01 05:12:27;;;;;;;21.43;14.70;;;6.60;99.90;;;;;;4291297;33;20176;-65
2021/10/01 05:15:22;;;;;;;22.97;14.30;;;6.70;99.90;;;;;;4289838;33;20195;-65
2021/10/01 05:18:02;;;;;;;21.83;14.33;;;6.60;99.90;;;;;;4291058;33;20182;-66
2021/10/01 05:21:02;;;;;;;23.57;14.53;;;6.60;99.90;;;;;;4289646;33;20242;-67
2021/10/01 05:23:31;;;;;;;23.10;14.43;;;6.50;99.90;;;;;;4289497;33;20161;-65
2021/10/01 05:25:59;;;;;;;23.20;13.90;;;6.60;99.90;;;;;;4289435;33;20157;-66
2021/10/01 05:28:26;;;;;;;24.27;13.03;;;6.60;99.90;;;;;;4290854;33;20150;-65
2021/10/01 05:30:52;;;;;;;20.50;13.67;;;6.60;99.90;;;;;;4289248;33;20216;-67
2021/10/01 05:33:19;;;;;;;20.27;13.40;;;6.60;99.90;;;;;;4289260;33;20146;-66
2021/10/01 05:35:47;;;;;;;20.30;13.43;;;6.60;99.90;;;;;;4287441;33;20152;-66
2021/10/01 05:38:14;;;;;;;22.23;13.03;;;6.70;99.90;;;;;;4292425;33;20205;-67
2021/10/01 05:40:41;;;;;;;24.53;14.23;;;6.70;99.90;;;;;;4296470;33;20501;-66
2021/10/01 05:43:08;;;;;;;24.00;14.07;;;6.70;99.90;;;;;;4289449;33;20503;-65
2021/10/01 05:45:35;;;;;;;22.27;14.10;;;6.80;99.90;;;;;;4306916;33;20205;-65
2021/10/01 05:48:02;;;;;;;23.57;14.10;;;6.90;99.90;;;;;;4349138;33;20213;-66
2021/10/01 05:50:33;;;;;;;26.10;14.20;;;7.00;99.90;;;;;;4380704;32;20186;-66
2021/10/01 05:53:03;;;;;;;32.63;15.33;;;7.00;99.90;;;;;;4380788;32;20491;-66
2021/10/01 05:55:31;;;;;;;22.80;13.83;;;7.10;99.90;;;;;;4379196;32;20185;-66
2021/10/01 05:57:57;;;;;;;22.27;14.53;;;7.10;99.90;;;;;;4379028;32;20536;-66
2021/10/01 06:00:24;;;;;;;24.47;14.77;;;7.20;99.90;;;;;;4380567;32;20448;-66
2021/10/01 06:02:52;;;;;;;26.00;14.47;;;7.30;99.90;;;;;;4379318;32;20135;-66
2021/10/01 06:05:19;;;;;;;23.20;14.67;;;7.40;99.90;;;;;;4380613;32;20385;-66
2021/10/01 06:07:46;;;;;;;25.13;15.13;;;7.50;99.90;;;;;;4380351;32;20145;-65
2021/10/01 06:10:12;;;;;;;30.10;15.60;;;7.50;99.90;;;;;;4379179;32;20508;-65
2021/10/01 06:12:40;;;;;;;26.47;15.80;;;7.60;99.90;;;;;;4380929;32;20439;-67
2021/10/01 06:15:07;;;;;;;32.93;16.10;;;7.70;99.90;;;;;;4382810;32;20150;-66
2021/10/01 06:17:34;;;;;;;53.93;16.13;;;7.80;99.90;;;;;;4384402;32;20168;-67
2021/10/01 06:20:03;;;;;;;33.50;16.33;;;7.90;99.90;;;;;;4378845;32;20152;-66
2021/10/01 06:22:30;;;;;;;84.20;17.87;;;7.90;99.90;;;;;;4380018;32;20128;-66
2021/10/01 06:24:57;;;;;;;32.07;16.37;;;8.00;99.90;;;;;;4378900;32;20508;-67
2021/10/01 06:27:24;;;;;;;30.73;16.03;;;8.00;99.90;;;;;;4380515;32;20146;-67
2021/10/01 06:29:53;;;;;;;27.80;16.00;;;8.10;99.90;;;;;;4409853;32;20181;-66
2021/10/01 06:32:19;;;;;;;27.70;16.93;;;8.20;99.90;;;;;;4409112;32;20176;-65
2021/10/01 06:34:46;;;;;;;45.87;18.17;;;8.30;99.90;;;;;;4408560;32;20198;-66
2021/10/01 06:37:13;;;;;;;43.67;17.40;;;8.30;99.90;;;;;;4409997;32;20116;-65
2021/10/01 06:39:40;;;;;;;30.63;16.80;;;8.50;99.90;;;;;;4410496;32;20127;-65
2021/10/01 06:42:07;;;;;;;34.50;18.37;;;8.50;99.90;;;;;;4410689;32;20132;-66
2021/10/01 06:44:35;;;;;;;33.30;18.43;;;8.60;99.90;;;;;;4410477;32;20162;-65
2021/10/01 06:47:12;;;;;;;30.73;17.80;;;8.80;99.90;;;;;;4395414;32;20193;-66
2021/10/01 06:50:04;;;;;;;31.73;17.83;;;8.90;99.90;;;;;;4412181;32;20143;-65
2021/10/01 08:18:25;;;;;;;44.90;20.37;;;10.90;99.90;;;;;;4406417;32;20403;-65
2021/10/01 08:21:05;;;;;;;40.27;21.23;;;11.50;99.90;;;;;;4426379;32;20119;-65
2021/10/01 08:23:33;;;;;;;35.40;19.43;;;11.50;99.90;;;;;;4427758;32;20119;-66
2021/10/01 08:26:00;;;;;;;38.10;21.10;;;11.50;99.90;;;;;;4427786;32;20147;-67
2021/10/01 08:28:27;;;;;;;35.63;19.43;;;11.50;99.90;;;;;;4427554;32;20430;-66
2021/10/01 08:30:54;;;;;;;37.67;19.70;;;11.50;99.90;;;;;;4425882;32;20198;-65
2021/10/01 08:33:21;;;;;;;39.50;20.30;;;11.60;99.90;;;;;;4426112;32;20127;-66
2021/10/01 08:35:47;;;;;;;37.77;20.53;;;11.80;99.90;;;;;;4425902;32;20234;-65
2021/10/01 08:38:14;;;;;;;44.00;22.73;;;11.80;99.90;;;;;;4425739;32;20207;-65
2021/10/01 08:40:41;;;;;;;41.10;21.43;;;11.50;99.90;;;;;;4427447;32;20415;-65
2021/10/01 08:43:08;;;;;;;43.33;22.87;;;11.50;99.90;;;;;;4425964;32;20232;-66
2021/10/01 08:45:35;;;;;;;46.33;22.47;;;11.70;99.90;;;;;;4425715;32;20193;-66
2021/10/01 08:48:03;;;;;;;41.60;22.17;;;11.90;99.90;;;;;;4427352;32;20177;-67
2021/10/01 08:50:30;;;;;;;45.10;21.90;;;11.90;99.90;;;;;;4427514;32;20180;-66
2021/10/01 08:52:59;;;;;;;43.80;21.83;;;11.90;99.90;;;;;;4426422;32;20172;-67
2021/10/01 08:55:27;;;;;;;44.73;23.03;;;12.00;99.90;;;;;;4425285;32;20162;-66
2021/10/01 08:57:54;;;;;;;44.63;23.27;;;12.00;99.90;;;;;;4427185;32;20155;-66
2021/10/01 09:00:21;;;;;;;43.70;23.07;;;12.00;99.90;;;;;;4425471;32;20450;-66
2021/10/01 09:02:48;;;;;;;40.27;22.30;;;12.10;99.90;;;;;;4427137;32;20123;-66
2021/10/01 09:05:16;;;;;;;45.00;22.87;;;12.20;99.90;;;;;;4427229;32;20128;-66
2021/10/01 09:07:43;;;;;;;42.40;22.70;;;12.30;99.90;;;;;;4425657;32;20127;-67
2021/10/01 09:10:12;;;;;;;41.70;22.87;;;12.40;99.90;;;;;;4426946;32;20131;-66
2021/10/01 09:12:47;;;;;;;40.83;22.27;;;12.60;99.90;;;;;;4427314;32;20449;-66
2021/10/01 09:15:14;;;;;;;43.50;22.60;;;12.80;99.90;;;;;;4425430;32;20158;-67
2021/10/01 09:17:48;;;;;;;36.77;21.37;;;12.90;99.90;;;;;;4426705;32;20124;-66
2021/10/01 09:20:16;;;;;;;37.53;21.20;;;13.00;99.90;;;;;;4426354;32;20157;-67
2021/10/01 09:22:47;;;;;;;38.77;22.00;;;13.10;99.90;;;;;;4427265;32;20127;-66
2021/10/01 09:25:22;;;;;;;36.30;20.50;;;13.20;99.90;;;;;;4425212;32;20189;-67
2021/10/01 09:27:52;;;;;;;38.90;21.93;;;13.40;99.90;;;;;;4426004;32;20439;-66
2021/10/01 09:30:21;;;;;;;36.53;19.80;;;13.60;99.90;;;;;;4427135;32;20400;-66
2021/10/01 09:33:11;;;;;;;36.77;21.13;;;13.70;99.90;;;;;;4425251;32;20125;-66
2021/10/01 09:35:42;;;;;;;38.87;21.10;;;13.90;99.90;;;;;;4424994;32;20179;-66
2021/10/01 09:38:18;;;;;;;37.83;20.80;;;14.10;99.90;;;;;;4426854;32;20120;-66
2021/10/01 09:40:59;;;;;;;36.40;20.77;;;14.30;99.90;;;;;;4426617;32;20158;-66
2021/10/01 09:43:31;;;;;;;35.33;20.57;;;14.40;99.90;;;;;;4426820;32;20429;-66
2021/10/01 09:46:08;;;;;;;30.93;18.57;;;14.60;99.90;;;;;;4426487;32;20122;-65
2021/10/01 09:48:37;;;;;;;34.23;19.50;;;15.20;99.90;;;;;;4426056;32;20119;-66
2021/10/01 09:51:17;;;;;;;32.27;18.23;;;15.70;99.90;;;;;;4426401;32;20466;-66
2021/10/01 09:53:49;;;;;;;28.13;17.33;;;16.20;99.90;;;;;;4424719;32;20183;-66
2021/10/01 09:56:25;;;;;;;28.37;17.10;;;16.90;99.90;;;;;;4425752;32;20148;-65
2021/10/01 09:59:32;;;;;;;28.67;16.40;;;17.50;99.90;;;;;;4410558;32;20514;-66
2021/10/01 10:02:03;;;;;;;26.40;16.30;;;17.90;99.90;;;;;;4348970;33;20561;-65
2021/10/01 10:04:54;;;;;;;24.97;15.33;;;17.70;99.90;;;;;;4348686;33;20159;-66
2021/10/01 10:07:26;;;;;;;22.00;13.93;;;18.10;99.90;;;;;;4347134;33;20522;-65
2021/10/01 10:10:06;;;;;;;23.33;14.23;;;18.80;99.90;;;;;;4348357;33;20160;-66
2021/10/01 10:12:35;;;;;;;23.60;14.20;;;19.40;99.90;;;;;;4348156;33;20581;-65
2021/10/01 10:15:14;;;;;;;24.20;13.97;;;20.10;99.90;;;;;;4346906;33;20163;-66
2021/10/01 10:17:50;;;;;;;21.73;14.30;;;20.40;99.90;;;;;;4347124;33;20137;-66
2021/10/01 10:20:19;;;;;;;21.20;13.83;;;20.40;99.90;;;;;;4347164;33;20540;-65
2021/10/01 10:22:46;;;;;;;21.83;13.00;;;20.70;99.90;;;;;;4348019;33;20136;-66
2021/10/01 10:25:13;;;;;;;21.47;13.57;;;21.30;99.90;;;;;;4346681;33;20144;-66
2021/10/01 10:27:40;;;;;;;18.50;12.33;;;21.70;99.90;;;;;;4347527;33;20149;-66
2021/10/01 10:30:07;;;;;;;19.17;12.10;;;22.00;99.90;;;;;;4347260;33;20133;-67
2021/10/01 10:32:34;;;;;;;20.30;12.70;;;22.60;99.90;;;;;;4348410;33;20503;-65
2021/10/01 10:35:04;;;;;;;17.33;11.43;;;22.90;99.90;;;;;;4346786;33;20137;-66
2021/10/01 10:37:36;;;;;;;17.27;11.00;;;22.70;99.90;;;;;;4354926;32;20145;-66
2021/10/01 10:40:18;;;;;;;17.27;11.70;;;22.80;99.90;;;;;;4424086;32;20438;-66
2021/10/01 10:42:45;;;;;;;16.90;10.77;;;23.10;99.90;;;;;;4425467;32;20209;-66
2021/10/01 10:45:24;;;;;;;17.53;11.70;;;23.60;99.90;;;;;;4425090;32;20126;-67
2021/10/01 10:47:53;;;;;;;16.67;11.57;;;24.00;99.90;;;;;;4425731;32;20123;-66
2021/10/01 10:50:25;;;;;;;17.60;11.97;;;24.10;99.30;;;;;;4425450;32;20127;-67
2021/10/01 10:53:04;;;;;;;16.13;11.30;;;24.30;98.70;;;;;;4425566;32;20128;-67
2021/10/01 10:55:52;;;;;;;16.58;11.70;;;24.60;97.00;;;;;;4423104;32;20123;-66
2021/10/01 10:58:25;;;;;;;16.37;10.60;;;25.00;96.40;;;;;;4424610;32;20139;-67
2021/10/01 11:01:21;;;;;;;13.60;10.10;;;24.80;94.00;;;;;;4425415;32;20453;-66
2021/10/01 11:04:09;;;;;;;16.00;10.90;;;24.80;94.30;;;;;;4425074;32;20412;-66
2021/10/01 11:06:39;;;;;;;14.35;10.05;;;25.30;94.20;;;;;;4425248;32;20127;-65
2021/10/01 11:09:16;;;;;;;12.70;9.05;;;25.70;92.80;;;;;;4424748;32;20464;-65
2021/10/01 11:11:48;;;;;;;12.98;9.02;;;25.20;90.60;;;;;;4425334;32;20168;-66
2021/10/01 11:14:15;;;;;;;12.85;9.15;;;24.90;91.20;;;;;;4423548;32;20166;-66
2021/10/01 11:17:03;;;;;;;14.10;9.40;;;24.50;91.70;;;;;;4423389;32;20210;-65
2021/10/01 11:19:44;;;;;;;12.57;8.88;;;24.30;92.20;;;;;;4410571;32;20208;-67
2021/10/01 11:22:30;;;;;;;11.73;8.02;;;24.00;92.30;;;;;;4425063;32;20116;-65
2021/10/01 11:25:14;;;;;;;12.55;8.55;;;24.10;91.80;;;;;;4423489;32;20194;-66
2021/10/01 11:27:58;;;;;;;13.07;9.20;;;24.10;92.00;;;;;;4423402;32;20177;-67
2021/10/01 11:30:27;;;;;;;12.07;8.43;;;24.50;90.60;;;;;;4425403;32;20158;-66
2021/10/01 11:33:05;;;;;;;14.27;9.32;;;24.60;90.70;;;;;;4423393;32;20143;-66
2021/10/01 11:35:31;;;;;;;12.50;9.80;;;24.90;90.40;;;;;;4423360;32;20163;-66
2021/10/01 11:37:58;;;;;;;17.50;10.90;;;25.20;90.30;;;;;;4424206;32;20138;-66
2021/10/01 11:40:28;;;;;;;15.82;10.65;;;25.20;89.80;;;;;;4425097;32;20203;-67
2021/10/01 11:43:00;;;;;;;15.35;11.63;;;25.30;90.00;;;;;;4423301;32;20158;-67
2021/10/01 11:45:27;;;;;;;16.25;11.18;;;25.30;89.20;;;;;;4425123;32;20120;-66
2021/10/01 11:47:56;;;;;;;17.50;11.85;;;25.10;89.70;;;;;;4423345;32;20207;-66
2021/10/01 11:50:36;;;;;;;18.15;13.05;;;25.10;90.40;;;;;;4423422;32;20158;-66
2021/10/01 11:53:22;;;;;;;21.48;13.70;;;25.00;90.60;;;;;;4427654;32;20180;-67
2021/10/01 11:55:53;;;;;;;16.67;12.95;;;24.70;91.00;;;;;;4426070;32;20243;-66
2021/10/01 11:58:22;;;;;;;19.02;13.10;;;24.20;91.60;;;;;;4426194;32;20135;-67
2021/10/01 12:00:50;;;;;;;17.62;12.82;;;23.90;92.40;;;;;;4427722;32;20124;-66
2021/10/01 12:03:19;;;;;;;18.05;13.80;;;23.60;92.80;;;;;;4427943;32;20131;-66
2021/10/01 12:05:51;;;;;;;19.53;13.60;;;23.00;93.70;;;;;;4426323;32;20216;-67
2021/10/01 12:08:22;;;;;;;18.60;13.20;;;22.40;94.50;;;;;;4427772;32;20146;-65
2021/10/01 12:10:53;;;;;;;20.10;14.07;;;22.00;95.30;;;;;;4426040;32;20131;-66
2021/10/01 12:13:32;;;;;;;19.58;13.32;;;21.80;96.10;;;;;;4426031;32;20123;-66
2021/10/01 12:16:05;;;;;;;26.03;15.77;;;21.50;96.80;;;;;;4426616;32;20181;-66
2021/10/01 12:18:37;;;;;;;22.17;14.90;;;21.10;97.40;;;;;;4427713;32;20461;-66
2021/10/01 12:21:15;;;;;;;21.90;13.90;;;20.60;98.40;;;;;;4426927;32;20193;-67
2021/10/01 12:23:55;;;;;;;20.53;13.90;;;20.30;99.50;;;;;;4425973;32;20119;-67
2021/10/01 12:26:32;;;;;;;21.60;14.93;;;20.20;99.90;;;;;;4425883;32;20215;-66
2021/10/01 12:29:23;;;;;;;21.37;15.47;;;20.20;99.90;;;;;;4427176;32;20146;-66
2021/10/01 12:31:56;;;;;;;22.87;14.97;;;20.10;99.90;;;;;;4425774;32;20124;-66
2021/10/01 12:34:33;;;;;;;21.47;14.60;;;20.10;99.90;;;;;;4427385;32;20124;-68
2021/10/01 12:37:10;;;;;;;20.30;13.07;;;20.30;99.90;;;;;;4425709;32;20206;-66
2021/10/01 12:39:40;;;;;;;19.03;13.43;;;20.50;99.90;;;;;;4427490;32;20123;-66
2021/10/01 12:42:14;;;;;;;20.37;12.40;;;20.60;99.90;;;;;;4426860;32;20172;-67
2021/10/01 12:44:43;;;;;;;18.63;12.23;;;20.50;99.90;;;;;;4426981;32;20131;-67
2021/10/01 12:47:10;;;;;;;17.93;12.43;;;20.50;99.90;;;;;;4425410;32;20120;-68
2021/10/01 12:49:37;;;;;;;17.10;12.30;;;20.60;99.90;;;;;;4427041;32;20522;-65
2021/10/01 12:52:15;;;;;;;15.90;11.27;;;20.70;99.90;;;;;;4427301;32;20135;-66
2021/10/01 12:54:41;;;;;;;18.47;12.20;;;20.50;99.90;;;;;;4425541;32;20235;-66
2021/10/01 12:57:15;;;;;;;16.70;11.90;;;20.50;99.90;;;;;;4425146;32;20155;-66
2021/10/01 12:59:47;;;;;;;18.13;12.00;;;20.20;99.90;;;;;;4426672;32;20149;-66
2021/10/01 13:02:22;;;;;;;16.77;11.70;;;19.90;99.90;;;;;;4426317;32;20137;-66
2021/10/01 13:05:00;;;;;;;16.53;12.07;;;19.70;99.90;;;;;;4427002;32;20176;-66
2021/10/01 13:07:34;;;;;;;18.60;12.63;;;19.40;99.90;;;;;;4425343;32;20430;-66
2021/10/01 13:10:05;;;;;;;17.37;12.27;;;19.20;99.90;;;;;;4425215;32;20149;-67
2021/10/01 13:12:37;;;;;;;17.03;12.03;;;18.80;99.90;;;;;;4425539;32;20135;-66
2021/10/01 13:15:25;;;;;;;16.97;11.83;;;18.40;99.90;;;;;;4426309;32;20142;-66
2021/10/01 13:18:06;;;;;;;18.73;12.17;;;18.30;99.90;;;;;;4424234;32;20176;-66
2021/10/01 13:20:37;;;;;;;17.63;11.20;;;18.20;99.90;;;;;;4426767;32;20191;-66
2021/10/01 13:23:10;;;;;;;17.63;11.80;;;17.90;99.90;;;;;;4425100;32;20132;-66
2021/10/01 13:25:46;;;;;;;16.00;10.77;;;17.80;99.90;;;;;;4426558;32;20131;-66
2021/10/01 13:28:15;;;;;;;16.83;10.70;;;17.60;99.90;;;;;;4424699;32;20143;-66
2021/10/01 13:30:41;;;;;;;16.17;10.20;;;17.30;99.90;;;;;;4424909;32;20386;-67
2021/10/01 13:33:08;;;;;;;14.73;10.03;;;17.10;99.90;;;;;;4426457;32;20196;-67
2021/10/01 13:35:36;;;;;;;15.13;9.87;;;16.90;99.90;;;;;;4425098;32;20204;-66
2021/10/01 13:38:04;;;;;;;15.83;10.17;;;16.80;99.90;;;;;;4424703;32;20177;-67
2021/10/01 13:40:32;;;;;;;19.17;10.47;;;16.70;99.90;;;;;;4424330;32;20448;-66
2021/10/01 13:42:59;;;;;;;14.23;9.90;;;16.60;99.90;;;;;;4425226;32;20176;-65
2021/10/01 13:45:26;;;;;;;13.27;9.03;;;16.40;99.90;;;;;;4425127;32;20126;-67
2021/10/01 13:47:53;;;;;;;13.23;9.40;;;16.30;99.90;;;;;;4426498;32;20375;-66
2021/10/01 13:50:20;;;;;;;13.60;7.90;;;16.20;99.90;;;;;;4426320;32;20127;-65
2021/10/01 13:52:47;;;;;;;11.53;8.00;;;16.10;99.90;;;;;;4424714;32;20401;-66
2021/10/01 13:55:15;;;;;;;13.43;8.40;;;16.10;99.90;;;;;;4425957;32;20384;-67
2021/10/01 13:57:42;;;;;;;15.87;9.23;;;16.10;99.90;;;;;;4424986;32;20143;-67
2021/10/01 14:00:12;;;;;;;13.67;8.83;;;16.20;99.90;;;;;;4425711;32;20391;-66
2021/10/01 14:02:41;;;;;;;15.13;9.10;;;16.30;99.90;;;;;;4425936;32;20115;-66
2021/10/01 14:05:10;;;;;;;11.87;8.43;;;16.50;99.90;;;;;;4425349;32;20123;-66
2021/10/01 14:07:38;;;;;;;12.70;8.70;;;16.50;99.90;;;;;;4424771;32;20165;-66
2021/10/01 14:10:10;;;;;;;11.10;8.10;;;16.40;99.90;;;;;;4424228;32;20162;-66
2021/10/01 14:12:37;;;;;;;10.77;7.73;;;16.30;99.90;;;;;;4423914;32;20150;-67
2021/10/01 14:15:05;;;;;;;12.93;8.43;;;16.20;99.90;;;;;;4425385;32;20123;-67
2021/10/01 14:17:31;;;;;;;12.97;8.20;;;16.00;99.90;;;;;;4424485;32;20383;-67
2021/10/01 14:19:59;;;;;;;12.73;7.90;;;15.90;99.90;;;;;;4425380;32;20391;-65
2021/10/01 14:22:26;;;;;;;12.20;8.20;;;15.70;99.90;;;;;;4424283;32;20155;-66
2021/10/01 14:24:52;;;;;;;11.50;7.30;;;15.50;99.90;;;;;;4423905;32;20180;-66
2021/10/01 14:27:25;;;;;;;10.60;7.70;;;15.40;99.90;;;;;;4423396;32;20198;-66
2021/10/01 14:29:53;;;;;;;12.80;7.90;;;15.30;99.90;;;;;;4425701;32;20119;-65
2021/10/01 14:32:20;;;;;;;12.50;8.17;;;15.30;99.90;;;;;;4424082;32;20476;-65
2021/10/01 14:34:47;;;;;;;12.70;8.03;;;15.20;99.90;;;;;;4423897;32;20513;-66
2021/10/01 14:37:14;;;;;;;12.33;8.50;;;15.20;99.90;;;;;;4423978;32;20338;-67
2021/10/01 14:39:41;;;;;;;13.33;8.60;;;15.10;99.90;;;;;;4423724;32;20202;-65
2021/10/01 14:42:07;;;;;;;13.27;8.10;;;15.00;99.90;;;;;;4423379;32;20449;-66
2021/10/01 14:44:34;;;;;;;12.20;8.80;;;15.00;99.90;;;;;;4425304;32;20143;-67
2021/10/01 14:47:01;;;;;;;13.23;8.63;;;15.00;99.90;;;;;;4423420;32;20127;-67
2021/10/01 14:49:30;;;;;;;13.43;8.40;;;14.90;99.90;;;;;;4425436;32;20115;-66
2021/10/01 14:52:04;;;;;;;12.90;8.40;;;14.80;99.90;;;;;;4424693;32;20143;-67